createdAt,value
2019-04-30T00:00:11.849Z,41.43
2019-04-30T00:02:45.393Z,44.03
2019-04-30T00:05:15.168Z,41.40
2019-04-30T00:07:46.207Z,41.87
2019-04-30T00:10:15.477Z,44.13
2019-04-30T00:12:45.255Z,41.70
2019-04-30T00:15:16.162Z,45.10
2019-04-30T00:17:46.001Z,42.20
2019-04-30T00:20:17.625Z,43.23
2019-04-30T00:22:49.259Z,40.90
2019-04-30T00:25:19.582Z,46.40
2019-04-30T00:27:48.128Z,49.47
2019-04-30T00:30:16.748Z,40.90
2019-04-30T00:32:47.754Z,46.37
2019-04-30T00:35:19.762Z,44.70
2019-04-30T00:37:51.985Z,44.13
2019-04-30T00:40:25.703Z,44.63
2019-04-30T00:42:51.948Z,44.40
2019-04-30T00:45:20.682Z,47.67
2019-04-30T00:47:49.393Z,44.97
2019-04-30T00:50:18.206Z,45.90
2019-04-30T00:52:46.884Z,43.53
2019-04-30T00:55:15.519Z,43.60
2019-04-30T00:57:47.439Z,42.20
2019-04-30T01:00:19.756Z,40.83
2019-04-30T01:03:05.234Z,46.13
2019-04-30T01:05:31.352Z,42.13
2019-04-30T01:08:00.050Z,38.10
2019-04-30T01:10:28.823Z,43.93
2019-04-30T01:13:01.754Z,43.53
2019-04-30T01:15:29.160Z,36.63
2019-04-30T01:17:59.396Z,42.27
2019-04-30T01:20:32.708Z,42.80
2019-04-30T01:23:03.180Z,44.80
2019-04-30T01:25:29.764Z,46.07
2019-04-30T01:27:58.718Z,45.83
2019-04-30T01:30:28.485Z,41.80
2019-04-30T01:32:58.803Z,39.87
2019-04-30T01:35:31.295Z,41.37
2019-04-30T01:37:59.627Z,40.80
2019-04-30T01:40:28.567Z,45.10
2019-04-30T01:42:59.193Z,50.67
2019-04-30T01:45:31.499Z,45.80
2019-04-30T01:48:00.609Z,42.67
2019-04-30T01:50:29.253Z,45.67
2019-04-30T01:52:59.114Z,46.33
2019-04-30T01:55:45.401Z,47.90
2019-04-30T01:58:33.278Z,48.33
2019-04-30T02:01:09.296Z,47.17
2019-04-30T02:03:39.937Z,47.97
2019-04-30T02:06:09.144Z,46.57
2019-04-30T02:08:39.332Z,52.40
2019-04-30T02:11:09.019Z,50.07
2019-04-30T02:13:39.228Z,45.70
2019-04-30T02:16:08.655Z,46.13
2019-04-30T02:18:39.284Z,44.87
2019-04-30T02:21:08.991Z,45.13
2019-04-30T02:23:39.243Z,47.87
2019-04-30T02:26:08.668Z,46.67
2019-04-30T02:28:39.361Z,45.90
2019-04-30T02:31:09.291Z,49.90
2019-04-30T02:33:42.049Z,56.90
2019-04-30T02:36:19.840Z,61.00
2019-04-30T02:38:49.956Z,51.70
2019-04-30T02:41:19.882Z,54.00
2019-04-30T02:43:51.938Z,62.70
2019-04-30T02:46:22.122Z,60.57
2019-04-30T02:48:52.726Z,61.37
2019-04-30T02:51:23.050Z,52.90
2019-04-30T02:54:20.338Z,61.23
2019-04-30T02:56:51.370Z,51.10
2019-04-30T02:59:20.373Z,53.80
2019-04-30T03:01:50.205Z,48.93
2019-04-30T03:04:19.793Z,50.57
2019-04-30T03:06:50.348Z,50.27
2019-04-30T03:09:20.272Z,47.50
2019-04-30T03:11:50.140Z,59.00
2019-04-30T03:14:20.177Z,46.50
2019-04-30T03:17:02.840Z,49.20
2019-04-30T03:19:36.187Z,58.47
2019-04-30T03:22:06.630Z,44.13
2019-04-30T03:24:35.344Z,50.33
2019-04-30T03:27:05.611Z,44.43
2019-04-30T03:29:34.279Z,51.03
2019-04-30T03:32:03.671Z,42.17
2019-04-30T03:34:33.274Z,46.57
2019-04-30T03:37:05.196Z,48.03
2019-04-30T03:39:34.295Z,51.47
2019-04-30T03:42:03.179Z,50.43
2019-04-30T03:44:32.613Z,42.53
2019-04-30T03:47:01.373Z,44.67
2019-04-30T03:49:31.379Z,49.53
2019-04-30T03:52:00.417Z,48.80
2019-04-30T03:54:29.406Z,47.03
2019-04-30T03:57:00.824Z,47.17
2019-04-30T03:59:32.943Z,54.23
2019-04-30T04:02:16.409Z,50.17
2019-04-30T04:04:52.897Z,53.97
2019-04-30T04:07:25.995Z,52.90
2019-04-30T04:09:56.194Z,60.53
2019-04-30T04:12:25.897Z,50.20
2019-04-30T04:14:54.604Z,51.27
2019-04-30T04:17:24.854Z,47.30
2019-04-30T04:19:53.446Z,46.30
2019-04-30T04:22:22.155Z,46.17
2019-04-30T04:24:50.980Z,46.97
2019-04-30T04:27:19.969Z,48.47
2019-04-30T04:29:50.984Z,47.03
2019-04-30T04:32:23.609Z,44.73
2019-04-30T04:34:50.417Z,41.80
2019-04-30T04:37:20.309Z,44.50
2019-04-30T04:39:50.039Z,44.67
2019-04-30T04:42:19.855Z,45.53
2019-04-30T04:44:50.166Z,41.57
2019-04-30T04:47:19.837Z,35.77
2019-04-30T04:49:52.978Z,32.57
2019-04-30T04:52:21.604Z,30.90
2019-04-30T04:54:50.846Z,36.10
2019-04-30T04:57:22.710Z,33.23
2019-04-30T04:59:50.291Z,33.33
2019-04-30T05:02:39.505Z,29.43
2019-04-30T05:05:09.695Z,32.10
2019-04-30T05:07:39.917Z,32.27
2019-04-30T05:10:09.290Z,34.90
2019-04-30T05:12:39.904Z,32.03
2019-04-30T05:15:09.526Z,34.40
2019-04-30T05:17:39.729Z,35.57
2019-04-30T05:20:11.222Z,35.00
2019-04-30T05:22:39.820Z,30.93
2019-04-30T05:25:09.144Z,34.30
2019-04-30T05:27:39.273Z,31.50
2019-04-30T05:30:12.223Z,32.60
2019-04-30T05:32:50.416Z,32.67
2019-04-30T05:35:18.565Z,31.33
2019-04-30T05:37:49.347Z,31.73
2019-04-30T05:40:21.948Z,35.13
2019-04-30T05:42:50.605Z,37.30
2019-04-30T05:45:19.515Z,37.83
2019-04-30T05:47:50.233Z,34.37
2019-04-30T05:50:21.130Z,32.53
2019-04-30T05:52:50.025Z,35.00
2019-04-30T05:55:19.817Z,29.43
2019-04-30T05:57:56.059Z,31.30
2019-04-30T06:00:20.440Z,30.83
2019-04-30T06:02:49.894Z,28.43
2019-04-30T06:05:18.875Z,27.07
2019-04-30T06:07:51.657Z,27.97
2019-04-30T06:10:39.617Z,27.30
2019-04-30T06:13:09.935Z,27.43
2019-04-30T06:15:55.564Z,24.97
2019-04-30T06:18:24.682Z,26.13
2019-04-30T06:20:57.303Z,26.60
2019-04-30T06:23:36.530Z,27.50
2019-04-30T06:26:01.239Z,23.92
2019-04-30T06:28:29.220Z,27.03
2019-04-30T06:30:59.106Z,29.18
2019-04-30T06:33:29.153Z,27.32
2019-04-30T06:36:00.105Z,26.20
2019-04-30T06:38:29.276Z,25.95
2019-04-30T06:40:59.515Z,24.37
2019-04-30T06:43:28.733Z,26.85
2019-04-30T06:45:58.987Z,23.30
2019-04-30T06:48:29.521Z,27.13
2019-04-30T06:50:59.225Z,25.72
2019-04-30T06:53:31.843Z,23.60
2019-04-30T06:56:00.280Z,20.97
2019-04-30T06:58:29.317Z,21.85
2019-04-30T07:00:59.565Z,23.00
2019-04-30T07:03:33.355Z,18.65
2019-04-30T07:06:06.315Z,21.10
2019-04-30T07:09:09.219Z,22.62
2019-04-30T07:11:34.830Z,24.25
2019-04-30T07:14:19.525Z,21.95
2019-04-30T07:16:54.353Z,25.88
2019-04-30T07:19:33.031Z,21.40
2019-04-30T07:22:00.682Z,19.12
2019-04-30T07:24:40.626Z,20.88
2019-04-30T07:27:09.454Z,23.30
2019-04-30T07:29:40.379Z,21.62
2019-04-30T07:32:09.503Z,18.25
2019-04-30T07:34:44.150Z,20.60
2019-04-30T07:37:21.020Z,20.77
2019-04-30T07:39:46.177Z,18.12
2019-04-30T07:42:16.382Z,17.40
2019-04-30T07:44:50.061Z,19.95
2019-04-30T07:47:20.758Z,18.37
2019-04-30T07:49:55.042Z,19.05
2019-04-30T07:52:21.497Z,18.00
2019-04-30T07:54:51.947Z,16.73
2019-04-30T07:57:25.438Z,18.23
2019-04-30T07:59:59.684Z,15.90
2019-04-30T08:02:36.743Z,15.48
2019-04-30T08:05:06.291Z,17.50
2019-04-30T08:07:34.955Z,15.75
2019-04-30T08:10:06.029Z,16.42
2019-04-30T08:12:37.496Z,14.53
2019-04-30T08:15:12.634Z,18.27
2019-04-30T08:17:45.840Z,15.08
2019-04-30T08:20:19.680Z,19.52
2019-04-30T08:22:50.814Z,17.92
2019-04-30T08:25:21.911Z,16.65
2019-04-30T08:27:51.318Z,15.55
2019-04-30T08:30:26.663Z,17.50
2019-04-30T08:32:53.667Z,14.65
2019-04-30T08:35:22.931Z,13.13
2019-04-30T08:37:52.407Z,16.37
2019-04-30T08:40:21.274Z,20.12
2019-04-30T08:42:51.648Z,17.12
2019-04-30T08:45:20.741Z,12.82
2019-04-30T08:47:51.066Z,15.75
2019-04-30T08:50:20.967Z,14.70
2019-04-30T08:52:53.228Z,14.78
2019-04-30T08:55:26.236Z,14.15
2019-04-30T08:58:10.080Z,13.25
2019-04-30T09:00:35.980Z,16.65
2019-04-30T09:03:04.992Z,16.10
2019-04-30T09:05:38.627Z,16.00
2019-04-30T09:08:09.613Z,13.05
2019-04-30T09:10:39.973Z,16.07
2019-04-30T09:13:09.128Z,15.20
2019-04-30T09:15:40.134Z,11.78
2019-04-30T09:18:12.633Z,15.83
2019-04-30T09:20:49.376Z,17.27
2019-04-30T09:23:18.718Z,16.93
2019-04-30T09:26:04.950Z,17.23
2019-04-30T09:28:23.337Z,14.10
2019-04-30T09:30:52.147Z,16.42
2019-04-30T09:33:21.031Z,12.03
2019-04-30T09:35:50.138Z,13.43
2019-04-30T09:38:20.325Z,13.68
2019-04-30T09:40:50.833Z,12.90
2019-04-30T09:43:19.639Z,14.33
2019-04-30T09:45:51.277Z,18.02
2019-04-30T09:48:19.955Z,21.45
2019-04-30T09:50:49.748Z,11.95
2019-04-30T09:53:19.512Z,15.08
2019-04-30T09:55:49.635Z,15.10
2019-04-30T09:58:21.059Z,17.00
2019-04-30T10:00:50.339Z,12.98
2019-04-30T10:03:20.379Z,15.78
2019-04-30T10:05:50.180Z,13.13
2019-04-30T10:08:20.951Z,12.33
2019-04-30T10:10:58.702Z,13.25
2019-04-30T10:13:27.333Z,17.10
2019-04-30T10:16:07.308Z,15.88
2019-04-30T10:18:36.391Z,15.10
2019-04-30T10:21:06.825Z,17.07
2019-04-30T10:23:35.569Z,14.87
2019-04-30T10:26:08.748Z,15.08
2019-04-30T10:28:40.490Z,15.30
2019-04-30T10:31:11.053Z,12.78
2019-04-30T10:33:39.659Z,14.90
2019-04-30T10:36:09.389Z,14.35
2019-04-30T10:38:39.376Z,13.80
2019-04-30T10:41:08.814Z,13.62
2019-04-30T10:43:39.307Z,15.70
2019-04-30T10:46:09.898Z,15.08
2019-04-30T10:48:38.696Z,13.00
2019-04-30T10:51:09.189Z,13.90
2019-04-30T10:53:39.031Z,20.75
2019-04-30T10:56:09.737Z,12.88
2019-04-30T10:58:40.271Z,14.93
2019-04-30T11:01:11.113Z,13.40
2019-04-30T11:03:42.982Z,13.55
2019-04-30T11:06:11.884Z,15.98
2019-04-30T11:08:40.617Z,12.90
2019-04-30T11:11:12.314Z,16.05
2019-04-30T11:13:41.191Z,15.32
2019-04-30T11:16:14.790Z,15.03
2019-04-30T11:18:41.179Z,15.95
2019-04-30T11:21:10.594Z,14.68
2019-04-30T11:23:39.647Z,12.60
2019-04-30T11:26:09.482Z,13.50
2019-04-30T11:28:38.846Z,18.42
2019-04-30T11:31:20.357Z,15.45
2019-04-30T11:33:49.512Z,14.25
2019-04-30T11:36:19.935Z,17.55
2019-04-30T11:38:48.787Z,13.98
2019-04-30T11:41:29.774Z,16.35
2019-04-30T11:43:49.641Z,15.05
2019-04-30T11:46:35.377Z,14.90
2019-04-30T11:49:05.838Z,16.90
2019-04-30T11:51:38.810Z,15.63
2019-04-30T11:54:13.505Z,16.17
2019-04-30T11:56:43.748Z,17.27
2019-04-30T11:59:15.642Z,16.50
2019-04-30T12:01:44.459Z,18.45
2019-04-30T12:04:13.196Z,15.20
2019-04-30T12:06:42.132Z,17.25
2019-04-30T12:09:16.215Z,14.85
2019-04-30T12:11:46.546Z,18.65
2019-04-30T12:14:15.268Z,13.90
2019-04-30T12:16:45.085Z,15.88
2019-04-30T12:19:15.273Z,16.57
2019-04-30T12:21:44.213Z,16.70
2019-04-30T12:24:12.928Z,17.60
2019-04-30T12:26:41.623Z,18.82
2019-04-30T12:29:12.934Z,18.73
2019-04-30T12:31:41.669Z,16.30
2019-04-30T12:34:10.431Z,14.03
2019-04-30T12:36:42.629Z,14.85
2019-04-30T12:39:11.595Z,13.43
2019-04-30T12:41:43.450Z,14.10
2019-04-30T12:44:12.167Z,12.68
2019-04-30T12:46:44.086Z,15.50
2019-04-30T12:49:13.704Z,13.38
2019-04-30T12:51:50.272Z,13.28
2019-04-30T12:54:49.809Z,13.25
2019-04-30T12:57:25.336Z,17.15
2019-04-30T12:59:58.507Z,14.18
2019-04-30T13:02:29.112Z,17.40
2019-04-30T13:05:00.895Z,19.02
2019-04-30T13:07:30.566Z,12.47
2019-04-30T13:10:01.663Z,12.53
2019-04-30T13:12:30.645Z,11.88
2019-04-30T13:15:02.400Z,10.15
2019-04-30T13:17:31.148Z,12.63
2019-04-30T13:19:59.891Z,17.00
2019-04-30T13:22:31.740Z,12.40
2019-04-30T13:25:01.899Z,17.32
2019-04-30T13:27:32.439Z,11.05
2019-04-30T13:30:04.266Z,12.80
2019-04-30T13:32:34.744Z,10.20
2019-04-30T13:35:05.049Z,11.68
2019-04-30T13:37:39.491Z,11.55
2019-04-30T13:40:10.181Z,13.58
2019-04-30T13:42:40.537Z,10.45
2019-04-30T13:45:09.472Z,11.50
2019-04-30T13:47:44.557Z,8.80
2019-04-30T13:50:13.370Z,16.57
2019-04-30T13:52:46.634Z,10.68
2019-04-30T13:55:19.222Z,11.43
2019-04-30T13:57:48.228Z,11.30
2019-04-30T14:00:22.291Z,11.20
2019-04-30T14:03:02.036Z,8.80
2019-04-30T14:05:30.771Z,11.53
2019-04-30T14:08:01.700Z,14.35
2019-04-30T14:10:35.183Z,9.03
2019-04-30T14:13:06.182Z,13.20
2019-04-30T14:15:35.238Z,11.28
2019-04-30T14:18:04.909Z,12.70
2019-04-30T14:20:33.550Z,10.30
2019-04-30T14:23:02.255Z,12.28
2019-04-30T14:25:33.738Z,10.13
2019-04-30T14:28:02.443Z,12.33
2019-04-30T14:30:31.295Z,12.82
2019-04-30T14:33:01.578Z,13.48
2019-04-30T14:35:33.973Z,13.22
2019-04-30T14:38:11.956Z,15.95
2019-04-30T14:40:45.220Z,18.23
2019-04-30T14:43:26.069Z,11.75
2019-04-30T14:46:15.662Z,10.03
2019-04-30T14:48:51.049Z,13.08
2019-04-30T14:51:21.323Z,13.22
2019-04-30T14:54:09.539Z,17.12
2019-04-30T14:56:42.396Z,17.02
2019-04-30T14:59:29.196Z,15.32
2019-04-30T15:02:09.957Z,15.25
2019-04-30T15:04:42.664Z,15.63
2019-04-30T15:07:11.365Z,12.40
2019-04-30T15:09:40.078Z,17.02
2019-04-30T15:12:16.096Z,15.70
2019-04-30T15:14:44.175Z,17.12
2019-04-30T15:17:12.902Z,15.55
2019-04-30T15:19:41.569Z,17.35
2019-04-30T15:22:38.838Z,14.68
2019-04-30T15:24:59.189Z,17.65
2019-04-30T15:27:31.356Z,16.35
2019-04-30T15:30:00.160Z,20.52
2019-04-30T15:32:29.001Z,20.85
2019-04-30T15:34:59.181Z,19.10
2019-04-30T15:37:29.297Z,23.80
2019-04-30T15:40:00.841Z,21.15
2019-04-30T15:42:29.934Z,20.12
2019-04-30T15:45:00.132Z,18.92
2019-04-30T15:47:35.869Z,17.40
2019-04-30T15:50:06.210Z,20.75
2019-04-30T15:52:39.960Z,17.65
2019-04-30T15:55:09.172Z,21.45
2019-04-30T15:57:55.756Z,17.92
2019-04-30T16:00:31.350Z,25.02
2019-04-30T16:03:13.414Z,22.95
2019-04-30T16:05:51.956Z,19.87
2019-04-30T16:08:31.554Z,21.93
2019-04-30T16:11:07.054Z,19.77
2019-04-30T16:13:45.493Z,24.50
2019-04-30T16:16:14.314Z,20.25
2019-04-30T16:18:52.156Z,24.35
2019-04-30T16:21:20.886Z,23.85
2019-04-30T16:23:49.601Z,23.18
2019-04-30T16:26:19.146Z,23.00
2019-04-30T16:28:49.470Z,21.23
2019-04-30T16:31:20.892Z,26.60
2019-04-30T16:33:49.882Z,24.92
2019-04-30T16:36:22.926Z,21.70
2019-04-30T16:38:51.584Z,26.15
2019-04-30T16:41:31.031Z,30.55
2019-04-30T16:43:53.075Z,26.40
2019-04-30T16:46:21.562Z,26.40
2019-04-30T16:48:54.990Z,26.33
2019-04-30T16:51:23.735Z,27.67
2019-04-30T16:53:58.610Z,25.77
2019-04-30T16:56:30.526Z,29.32
2019-04-30T16:59:00.929Z,25.70
2019-04-30T17:01:33.982Z,27.65
2019-04-30T17:04:09.800Z,27.90
2019-04-30T17:07:01.128Z,27.30
2019-04-30T17:09:51.015Z,29.65
2019-04-30T17:12:24.257Z,30.65
2019-04-30T17:15:11.108Z,27.70
2019-04-30T17:17:49.614Z,32.75
2019-04-30T17:20:18.533Z,28.95
2019-04-30T17:22:49.714Z,30.65
2019-04-30T17:25:25.837Z,30.10
2019-04-30T17:28:01.161Z,32.05
2019-04-30T17:30:29.340Z,28.42
2019-04-30T17:32:59.751Z,29.63
2019-04-30T17:35:30.510Z,28.60
2019-04-30T17:38:04.726Z,32.10
2019-04-30T17:40:32.385Z,26.15
2019-04-30T17:43:04.170Z,26.37
2019-04-30T17:45:32.874Z,28.35
2019-04-30T17:48:03.164Z,27.02
2019-04-30T17:50:36.771Z,26.95
2019-04-30T17:53:09.062Z,30.68
2019-04-30T17:55:41.011Z,31.00
2019-04-30T17:58:14.826Z,24.45
2019-04-30T18:00:48.750Z,22.35
2019-04-30T18:03:23.055Z,25.65
2019-04-30T18:05:52.747Z,26.90
2019-04-30T18:08:24.651Z,21.97
2019-04-30T18:11:00.573Z,23.55
2019-04-30T18:13:29.311Z,22.00
2019-04-30T18:16:00.446Z,24.55
2019-04-30T18:18:33.573Z,24.23
2019-04-30T18:21:21.705Z,25.08
2019-04-30T18:24:02.538Z,24.90
2019-04-30T18:26:31.982Z,24.27
2019-04-30T18:29:08.824Z,21.52
2019-04-30T18:31:37.717Z,24.67
2019-04-30T18:34:09.614Z,22.48
2019-04-30T18:36:39.366Z,24.77
2019-04-30T18:39:09.546Z,24.85
2019-04-30T18:41:48.059Z,24.02
2019-04-30T18:44:14.296Z,23.75
2019-04-30T18:46:50.580Z,22.80
2019-04-30T18:49:19.487Z,23.77
2019-04-30T18:51:49.735Z,25.32
2019-04-30T18:54:24.934Z,24.92
2019-04-30T18:56:59.165Z,21.73
2019-04-30T18:59:28.786Z,22.30
2019-04-30T19:02:06.473Z,21.73
2019-04-30T19:04:40.596Z,25.17
2019-04-30T19:07:24.275Z,25.45
2019-04-30T19:09:56.445Z,21.97
2019-04-30T19:12:38.998Z,24.67
2019-04-30T19:15:48.528Z,21.50
2019-04-30T19:18:15.199Z,21.27
2019-04-30T19:20:49.841Z,22.10
2019-04-30T19:23:25.843Z,23.55
2019-04-30T19:25:54.777Z,24.20
2019-04-30T19:28:26.133Z,35.65
2019-04-30T19:31:00.994Z,27.65
2019-04-30T19:33:34.567Z,27.75
2019-04-30T19:36:06.217Z,21.93
2019-04-30T19:38:41.981Z,30.65
2019-04-30T19:41:13.985Z,25.15
2019-04-30T19:43:45.216Z,23.67
2019-04-30T19:46:21.352Z,24.85
2019-04-30T19:48:54.622Z,28.70
2019-04-30T19:51:29.785Z,22.85
2019-04-30T19:54:00.001Z,26.50
2019-04-30T19:56:31.293Z,26.73
2019-04-30T19:59:05.611Z,25.20
2019-04-30T20:01:35.208Z,24.92
2019-04-30T20:04:10.463Z,25.65
2019-04-30T20:06:40.911Z,30.07
2019-04-30T20:09:19.508Z,29.15
2019-04-30T20:11:51.480Z,24.45
2019-04-30T20:14:22.970Z,26.20
2019-04-30T20:16:54.053Z,26.97
2019-04-30T20:19:30.380Z,26.05
2019-04-30T20:22:02.864Z,27.05
2019-04-30T20:24:31.693Z,23.12
2019-04-30T20:27:06.913Z,24.90
2019-04-30T20:29:31.008Z,26.87
2019-04-30T20:31:59.808Z,23.00
2019-04-30T20:34:30.173Z,25.12
2019-04-30T20:37:01.866Z,26.75
2019-04-30T20:39:45.983Z,24.45
2019-04-30T20:42:16.329Z,25.43
2019-04-30T20:44:48.868Z,28.95
2019-04-30T20:47:18.443Z,26.90
2019-04-30T20:49:50.923Z,27.07
2019-04-30T20:52:20.695Z,29.23
2019-04-30T20:54:54.736Z,26.77
2019-04-30T20:57:23.661Z,25.57
2019-04-30T20:59:55.157Z,26.05
2019-04-30T21:02:28.656Z,28.75
2019-04-30T21:04:59.979Z,31.00
2019-04-30T21:07:29.226Z,28.42
2019-04-30T21:09:58.326Z,29.30
2019-04-30T21:12:28.849Z,28.57
2019-04-30T21:14:59.703Z,33.78
2019-04-30T21:17:31.387Z,31.23
2019-04-30T21:20:01.011Z,28.00
2019-04-30T21:22:30.676Z,31.00
2019-04-30T21:25:04.813Z,29.37
2019-04-30T21:27:33.641Z,28.60
2019-04-30T21:30:04.370Z,35.20
2019-04-30T21:32:55.643Z,32.87
2019-04-30T21:35:30.526Z,29.00
2019-04-30T21:38:01.666Z,30.03
2019-04-30T21:40:30.747Z,26.70
2019-04-30T21:43:01.644Z,32.30
2019-04-30T21:45:34.868Z,34.15
2019-04-30T21:48:09.166Z,30.07
2019-04-30T21:50:39.654Z,31.00
2019-04-30T21:53:19.552Z,26.80
2019-04-30T21:55:49.698Z,29.40
2019-04-30T21:58:20.456Z,31.50
2019-04-30T22:00:52.464Z,33.73
2019-04-30T22:03:22.007Z,35.43
2019-04-30T22:05:50.706Z,33.37
2019-04-30T22:08:19.585Z,32.27
2019-04-30T22:10:48.383Z,33.03
2019-04-30T22:13:18.510Z,31.30
2019-04-30T22:15:57.019Z,33.07
2019-04-30T22:18:25.747Z,30.40
2019-04-30T22:20:59.415Z,30.60
2019-04-30T22:23:30.755Z,31.47
2019-04-30T22:25:59.480Z,29.10
2019-04-30T22:28:30.264Z,31.13
2019-04-30T22:31:02.753Z,31.27
2019-04-30T22:33:31.454Z,31.50
2019-04-30T22:36:08.742Z,33.70
2019-04-30T22:38:49.937Z,30.87
2019-04-30T22:41:20.347Z,32.90
2019-04-30T22:43:51.821Z,34.23
2019-04-30T22:46:20.398Z,33.07
2019-04-30T22:48:50.913Z,28.53
2019-04-30T22:51:19.495Z,32.33
2019-04-30T22:53:52.937Z,32.63
2019-04-30T22:56:21.697Z,33.80
2019-04-30T22:58:51.914Z,35.93
2019-04-30T23:01:22.302Z,34.43
2019-04-30T23:03:52.914Z,31.67
2019-04-30T23:06:21.549Z,31.73
2019-04-30T23:08:51.560Z,32.90
2019-04-30T23:11:21.279Z,35.20
2019-04-30T23:13:51.632Z,35.37
2019-04-30T23:16:20.334Z,32.63
2019-04-30T23:18:49.277Z,36.20
2019-04-30T23:21:18.077Z,33.73
2019-04-30T23:23:46.788Z,35.77
2019-04-30T23:26:15.859Z,35.33
2019-04-30T23:28:48.802Z,36.67
2019-04-30T23:31:17.362Z,32.37
2019-04-30T23:33:47.305Z,28.27
2019-04-30T23:36:16.618Z,34.10
2019-04-30T23:38:45.268Z,32.20
2019-04-30T23:41:14.276Z,32.70
2019-04-30T23:43:42.908Z,32.10
2019-04-30T23:46:11.610Z,35.80
2019-04-30T23:48:41.928Z,31.80
2019-04-30T23:51:13.574Z,31.13
2019-04-30T23:53:42.345Z,31.63
2019-04-30T23:56:11.096Z,31.63
2019-04-30T23:58:39.677Z,31.17
